M I D A S
Marine Information and Data Acquisition System
Tripno 1077 of the Zeeleeuw from 2006-04-27 07:06:49 to 2006-04-27 13:13:56
Back to CruiseResearch ActivitiesStationsMapUnderway DataData graphs

EquipmentUnitsComment
TimeDGPSUTC
LatitudeDGPSDM.mWGS84
LongitudeDGPSDM.mWGS84
HeadingGyrodeg 
SOGDGPSknotsSpeed over ground
COGDGPSdegCourse over ground
DepthEcho soundermeters200 kHz
Missing or incorrect values are displayed as -999
Navigation data collected by the RV Zeeleeuw from 2006-04-27 06:12:50 to 2006-04-27 13:24:31
                                                                                    Next 1000 lines
Time Latitude Longitude Heading SOG COG Depth
2006-04-27 06:13:00 51°13.602 2°56.097 125.4 -999 18 -999
2006-04-27 06:13:05 51°13.602 2°56.096 125.4 -999 246 -999
2006-04-27 06:13:10 51°13.603 2°56.097 125.4 -999 244 -999
2006-04-27 06:13:15 51°13.603 2°56.097 125.5 -999 245 -999
2006-04-27 06:13:20 51°13.603 2°56.096 125.5 -999 231 -999
2006-04-27 06:13:24 51°13.603 2°56.097 125.5 -999 267 -999
2006-04-27 06:13:30 51°13.603 2°56.097 125.5 -999 5 -999
2006-04-27 06:13:35 51°13.603 2°56.097 125.5 -999 18 -999
2006-04-27 06:13:40 51°13.603 2°56.097 125.5 -999 19 -999
2006-04-27 06:13:44 51°13.602 2°56.097 125.5 -999 244 -999
2006-04-27 06:13:50 51°13.602 2°56.097 125.5 -999 301 -999
2006-04-27 06:13:55 51°13.602 2°56.097 125.5 -999 273 -999
2006-04-27 06:14:00 51°13.603 2°56.097 125.5 -999 26 -999
2006-04-27 06:14:05 51°13.603 2°56.098 125.5 -999 24 -999
2006-04-27 06:14:10 51°13.603 2°56.098 125.5 -999 18 -999
2006-04-27 06:14:15 51°13.603 2°56.098 125.5 -999 222 -999
2006-04-27 06:14:20 51°13.603 2°56.099 125.5 -999 333 -999
2006-04-27 06:14:25 51°13.603 2°56.099 125.5 -999 259 -999
2006-04-27 06:14:30 51°13.602 2°56.099 125.5 -999 221 -999
2006-04-27 06:14:35 51°13.602 2°56.099 125.5 -999 193 -999
2006-04-27 06:14:40 51°13.602 2°56.099 125.5 -999 262 -999
2006-04-27 06:14:45 51°13.602 2°56.099 125.5 -999 261 -999
2006-04-27 06:14:50 51°13.602 2°56.099 125.5 -999 220 -999
2006-04-27 06:14:55 51°13.602 2°56.099 125.5 -999 20 -999
2006-04-27 06:15:00 51°13.602 2°56.099 125.5 -999 38 -999
2006-04-27 06:15:05 51°13.602 2°56.099 125.5 -999 41 -999
2006-04-27 06:15:10 51°13.602 2°56.099 125.5 -999 57 -999
2006-04-27 06:15:16 51°13.602 2°56.099 125.5 -999 28 -999
2006-04-27 06:15:21 51°13.601 2°56.099 125.5 -999 197 -999
2006-04-27 06:15:26 51°13.601 2°56.099 125.5 -999 297 -999
2006-04-27 06:15:31 51°13.601 2°56.099 125.5 -999 26 -999
2006-04-27 06:15:36 51°13.601 2°56.099 125.5 -999 31 -999
2006-04-27 06:15:41 51°13.601 2°56.099 125.5 -999 40 -999
2006-04-27 06:15:45 51°13.601 2°56.099 125.5 -999 30 -999
2006-04-27 06:15:51 51°13.601 2°56.099 125.5 -999 47 -999
2006-04-27 06:15:56 51°13.6 2°56.099 125.5 -999 37 -999
2006-04-27 06:16:01 51°13.6 2°56.099 125.5 -999 321 -999
2006-04-27 06:16:05 51°13.6 2°56.099 125.5 -999 51 -999
2006-04-27 06:16:11 51°13.6 2°56.099 125.5 -999 30 -999
2006-04-27 06:16:16 51°13.6 2°56.099 125.5 -999 232 -999
2006-04-27 06:16:21 51°13.6 2°56.099 125.6 -999 224 -999
2006-04-27 06:16:25 51°13.6 2°56.099 125.6 -999 226 -999
2006-04-27 06:16:31 51°13.6 2°56.099 125.6 -999 201 -999
2006-04-27 06:16:36 51°13.6 2°56.099 125.6 -999 33 -999
2006-04-27 06:16:41 51°13.601 2°56.099 125.6 0.1 34 -999
2006-04-27 06:16:45 51°13.601 2°56.099 125.6 -999 32 -999
2006-04-27 06:16:51 51°13.601 2°56.099 125.6 -999 219 -999
2006-04-27 06:16:55 51°13.601 2°56.099 125.6 -999 216 -999
2006-04-27 06:17:01 51°13.601 2°56.099 125.6 -999 211 -999
2006-04-27 06:17:06 51°13.601 2°56.099 125.6 -999 262 -999
2006-04-27 06:17:11 51°13.601 2°56.099 125.6 -999 226 -999
2006-04-27 06:17:16 51°13.601 2°56.099 125.6 -999 234 -999
2006-04-27 06:17:21 51°13.601 2°56.099 125.6 -999 19 -999
2006-04-27 06:17:26 51°13.601 2°56.099 125.6 -999 354 -999
2006-04-27 06:17:30 51°13.601 2°56.099 125.6 -999 2 -999
2006-04-27 06:17:34 51°13.601 2°56.099 125.6 -999 38 -999
2006-04-27 06:17:39 51°13.601 2°56.099 125.6 -999 78 -999
2006-04-27 06:17:43 51°13.601 2°56.099 125.6 -999 242 -999
2006-04-27 06:17:48 51°13.601 2°56.099 125.7 -999 27 -999
2006-04-27 06:17:52 51°13.601 2°56.099 125.7 -999 357 -999
2006-04-27 06:17:57 51°13.601 2°56.099 125.7 -999 72 -999
2006-04-27 06:18:02 51°13.601 2°56.099 125.7 -999 29 -999
2006-04-27 06:18:08 51°13.601 2°56.099 125.7 -999 193 -999
2006-04-27 06:18:12 51°13.601 2°56.099 125.7 -999 189 -999
2006-04-27 06:18:17 51°13.601 2°56.099 125.7 -999 239 -999
2006-04-27 06:18:22 51°13.601 2°56.099 125.7 -999 208 -999
2006-04-27 06:18:27 51°13.601 2°56.099 125.7 -999 239 -999
2006-04-27 06:18:32 51°13.601 2°56.099 125.7 -999 231 -999
2006-04-27 06:18:37 51°13.601 2°56.1 125.7 -999 218 -999
2006-04-27 06:18:42 51°13.601 2°56.1 125.8 -999 5 -999
2006-04-27 06:18:47 51°13.601 2°56.1 125.8 -999 222 -999
2006-04-27 06:18:52 51°13.601 2°56.1 125.9 -999 222 -999
2006-04-27 06:18:57 51°13.601 2°56.1 125.9 -999 220 -999
2006-04-27 06:19:02 51°13.601 2°56.1 125.9 -999 219 -999
2006-04-27 06:19:07 51°13.601 2°56.1 125.9 -999 230 -999
2006-04-27 06:19:12 51°13.601 2°56.1 125.9 -999 251 -999
2006-04-27 06:19:17 51°13.601 2°56.1 125.9 -999 231 -999
2006-04-27 06:19:22 51°13.601 2°56.1 126 -999 223 -999
2006-04-27 06:19:27 51°13.601 2°56.1 126 -999 129 -999
2006-04-27 06:19:32 51°13.602 2°56.1 126 -999 36 -999
2006-04-27 06:19:37 51°13.602 2°56.1 126 -999 196 -999
2006-04-27 06:19:42 51°13.602 2°56.1 126 -999 213 -999
2006-04-27 06:19:47 51°13.602 2°56.1 126 -999 229 -999
2006-04-27 06:19:52 51°13.602 2°56.1 126 -999 220 -999
2006-04-27 06:19:57 51°13.602 2°56.1 126 -999 267 -999
2006-04-27 06:20:02 51°13.602 2°56.1 126 -999 300 -999
2006-04-27 06:20:07 51°13.602 2°56.1 126.1 -999 299 -999
2006-04-27 06:20:12 51°13.602 2°56.1 126.1 -999 327 -999
2006-04-27 06:20:17 51°13.602 2°56.1 126.1 -999 287 -999
2006-04-27 06:20:22 51°13.602 2°56.1 126.1 -999 26 -999
2006-04-27 06:20:28 51°13.602 2°56.1 126.1 -999 41 -999
2006-04-27 06:20:32 51°13.602 2°56.1 126.1 -999 9 -999
2006-04-27 06:20:37 51°13.602 2°56.1 126.2 -999 3 -999
2006-04-27 06:20:42 51°13.602 2°56.1 126.2 -999 9 -999
2006-04-27 06:20:47 51°13.602 2°56.1 126.2 -999 1 -999
2006-04-27 06:20:52 51°13.602 2°56.1 126.2 -999 233 -999
2006-04-27 06:20:57 51°13.602 2°56.1 126.3 -999 226 -999
2006-04-27 06:21:02 51°13.602 2°56.1 126.3 -999 226 -999
2006-04-27 06:21:07 51°13.602 2°56.1 126.3 -999 301 -999
2006-04-27 06:21:12 51°13.602 2°56.1 126.3 -999 267 -999
2006-04-27 06:21:17 51°13.602 2°56.1 126.3 -999 221 -999
2006-04-27 06:21:22 51°13.602 2°56.1 126.3 -999 217 -999
2006-04-27 06:21:27 51°13.602 2°56.1 126.4 -999 216 -999
2006-04-27 06:21:32 51°13.602 2°56.1 126.4 -999 219 -999
2006-04-27 06:21:37 51°13.602 2°56.1 126.4 -999 224 -999
2006-04-27 06:21:42 51°13.602 2°56.1 126.4 -999 109 -999
2006-04-27 06:21:47 51°13.602 2°56.1 126.4 -999 2 -999
2006-04-27 06:21:52 51°13.602 2°56.1 126.5 -999 216 -999
2006-04-27 06:21:57 51°13.602 2°56.1 126.5 -999 229 -999
2006-04-27 06:22:02 51°13.602 2°56.1 126.5 -999 224 -999
2006-04-27 06:22:08 51°13.602 2°56.1 126.5 -999 225 -999
2006-04-27 06:22:12 51°13.602 2°56.1 126.5 -999 7 -999
2006-04-27 06:22:17 51°13.602 2°56.1 126.5 -999 35 -999
2006-04-27 06:22:22 51°13.602 2°56.1 126.5 -999 70 -999
2006-04-27 06:22:28 51°13.602 2°56.1 126.5 -999 43 -999
2006-04-27 06:22:32 51°13.602 2°56.1 126.5 -999 23 -999
2006-04-27 06:22:37 51°13.602 2°56.1 126.5 -999 212 -999
2006-04-27 06:22:42 51°13.602 2°56.1 126.5 -999 41 -999
2006-04-27 06:22:48 51°13.602 2°56.1 126.5 -999 359 -999
2006-04-27 06:22:52 51°13.602 2°56.1 126.5 -999 34 -999
2006-04-27 06:22:57 51°13.602 2°56.1 126.5 -999 48 -999
2006-04-27 06:23:02 51°13.602 2°56.1 126.5 -999 74 -999
2006-04-27 06:23:07 51°13.601 2°56.099 126.5 -999 270 -999
2006-04-27 06:23:12 51°13.601 2°56.099 126.5 -999 280 -999
2006-04-27 06:23:17 51°13.601 2°56.099 126.5 -999 239 -999
2006-04-27 06:23:22 51°13.601 2°56.099 126.5 -999 222 -999
2006-04-27 06:23:27 51°13.601 2°56.099 126.5 -999 224 -999
2006-04-27 06:23:32 51°13.602 2°56.099 126.5 -999 295 -999
2006-04-27 06:23:37 51°13.601 2°56.099 126.5 -999 255 -999
2006-04-27 06:23:42 51°13.601 2°56.099 126.5 -999 216 -999
2006-04-27 06:23:47 51°13.602 2°56.099 126.5 -999 216 -999
2006-04-27 06:23:52 51°13.602 2°56.1 126.5 -999 238 -999
2006-04-27 06:23:57 51°13.602 2°56.1 126.6 -999 116 -999
2006-04-27 06:24:02 51°13.602 2°56.1 126.6 -999 207 -999
2006-04-27 06:24:07 51°13.602 2°56.1 126.6 -999 190 -999
2006-04-27 06:24:12 51°13.602 2°56.1 126.6 -999 9 -999
2006-04-27 06:24:17 51°13.602 2°56.1 126.6 -999 191 -999
2006-04-27 06:24:22 51°13.602 2°56.1 126.6 -999 48 -999
2006-04-27 06:24:27 51°13.602 2°56.1 126.7 -999 54 -999
2006-04-27 06:24:32 51°13.602 2°56.1 126.7 -999 247 -999
2006-04-27 06:24:37 51°13.602 2°56.1 126.7 -999 30 -999
2006-04-27 06:24:42 51°13.602 2°56.1 126.8 -999 53 -999
2006-04-27 06:24:47 51°13.602 2°56.1 126.8 -999 223 -999
2006-04-27 06:24:52 51°13.602 2°56.1 126.8 -999 77 -999
2006-04-27 06:24:57 51°13.602 2°56.1 126.8 -999 256 -999
2006-04-27 06:25:02 51°13.602 2°56.1 126.8 -999 177 -999
2006-04-27 06:25:07 51°13.602 2°56.1 126.8 -999 33 -999
2006-04-27 06:25:12 51°13.602 2°56.1 126.8 -999 36 -999
2006-04-27 06:25:17 51°13.602 2°56.1 126.8 -999 53 -999
2006-04-27 06:25:22 51°13.602 2°56.1 126.8 -999 15 -999
2006-04-27 06:25:27 51°13.602 2°56.099 126.8 -999 218 -999
2006-04-27 06:25:32 51°13.602 2°56.1 126.8 -999 129 -999
2006-04-27 06:25:37 51°13.602 2°56.099 126.8 -999 331 -999
2006-04-27 06:25:42 51°13.602 2°56.099 126.8 -999 258 -999
2006-04-27 06:25:47 51°13.601 2°56.099 126.8 -999 260 -999
2006-04-27 06:25:52 51°13.601 2°56.099 126.8 -999 4 -999
2006-04-27 06:25:57 51°13.601 2°56.099 126.8 -999 229 -999
2006-04-27 06:26:02 51°13.601 2°56.099 126.8 -999 225 -999
2006-04-27 06:26:07 51°13.601 2°56.099 126.8 -999 217 -999
2006-04-27 06:26:12 51°13.601 2°56.099 126.8 -999 269 -999
2006-04-27 06:26:17 51°13.601 2°56.099 126.8 -999 240 -999
2006-04-27 06:26:22 51°13.601 2°56.099 126.8 -999 214 -999
2006-04-27 06:26:27 51°13.601 2°56.099 126.8 -999 167 -999
2006-04-27 06:26:32 51°13.601 2°56.099 126.9 -999 208 -999
2006-04-27 06:26:37 51°13.601 2°56.099 126.9 -999 245 -999
2006-04-27 06:26:42 51°13.601 2°56.099 126.9 -999 19 -999
2006-04-27 06:26:47 51°13.601 2°56.099 127 -999 228 -999
2006-04-27 06:26:52 51°13.601 2°56.099 127 -999 212 -999
2006-04-27 06:26:57 51°13.601 2°56.099 127 -999 275 -999
2006-04-27 06:27:02 51°13.601 2°56.099 127 -999 319 -999
2006-04-27 06:27:07 51°13.601 2°56.099 127 -999 183 -999
2006-04-27 06:27:12 51°13.601 2°56.099 127 -999 63 -999
2006-04-27 06:27:17 51°13.602 2°56.1 127 -999 52 -999
2006-04-27 06:27:22 51°13.602 2°56.099 127 -999 223 -999
2006-04-27 06:27:27 51°13.602 2°56.1 127 -999 303 -999
2006-04-27 06:27:32 51°13.602 2°56.099 127 -999 334 -999
2006-04-27 06:27:37 51°13.602 2°56.099 127 -999 306 -999
2006-04-27 06:27:41 51°13.602 2°56.099 127 -999 315 -999
2006-04-27 06:27:47 51°13.602 2°56.099 127 -999 291 -999
2006-04-27 06:27:52 51°13.602 2°56.1 127 -999 326 -999
2006-04-27 06:27:57 51°13.602 2°56.1 127 -999 7 -999
2006-04-27 06:28:02 51°13.602 2°56.099 127 -999 201 -999
2006-04-27 06:28:07 51°13.602 2°56.099 127 -999 153 -999
2006-04-27 06:28:12 51°13.602 2°56.099 127 -999 217 -999
2006-04-27 06:28:17 51°13.602 2°56.099 127 -999 208 -999
2006-04-27 06:28:22 51°13.602 2°56.099 127 -999 210 -999
2006-04-27 06:28:27 51°13.602 2°56.099 127.1 -999 108 -999
2006-04-27 06:28:32 51°13.602 2°56.099 127.1 -999 66 -999
2006-04-27 06:28:37 51°13.602 2°56.099 127.1 -999 238 -999
2006-04-27 06:28:42 51°13.602 2°56.1 127.1 -999 358 -999
2006-04-27 06:28:47 51°13.602 2°56.1 127.1 -999 22 -999
2006-04-27 06:28:52 51°13.602 2°56.1 127.1 -999 21 -999
2006-04-27 06:28:57 51°13.602 2°56.1 127.2 -999 225 -999
2006-04-27 06:29:02 51°13.602 2°56.1 127.3 -999 315 -999
2006-04-27 06:29:07 51°13.602 2°56.1 127.4 -999 321 -999
2006-04-27 06:29:12 51°13.602 2°56.1 127.6 -999 316 -999
2006-04-27 06:29:17 51°13.602 2°56.1 127.7 -999 18 -999
2006-04-27 06:29:22 51°13.602 2°56.099 127.7 -999 213 -999
2006-04-27 06:29:27 51°13.602 2°56.099 127.8 -999 8 -999
2006-04-27 06:29:32 51°13.602 2°56.099 127.8 -999 14 -999
2006-04-27 06:29:37 51°13.602 2°56.099 127.9 -999 19 -999
2006-04-27 06:29:42 51°13.602 2°56.099 127.9 -999 157 -999
2006-04-27 06:29:47 51°13.602 2°56.099 128 -999 40 -999
2006-04-27 06:29:52 51°13.602 2°56.099 128 -999 166 -999
2006-04-27 06:29:57 51°13.602 2°56.099 128 -999 71 -999
2006-04-27 06:30:02 51°13.602 2°56.099 128 -999 27 -999
2006-04-27 06:30:07 51°13.602 2°56.099 128 -999 201 -999
2006-04-27 06:30:12 51°13.602 2°56.099 128 -999 346 -999
2006-04-27 06:30:17 51°13.602 2°56.099 128 -999 125 -999
2006-04-27 06:30:21 51°13.602 2°56.099 128.1 -999 355 -999
2006-04-27 06:30:27 51°13.602 2°56.099 128.1 -999 195 -999
2006-04-27 06:30:32 51°13.602 2°56.099 128.1 -999 221 -999
2006-04-27 06:30:37 51°13.602 2°56.099 128.1 -999 33 -999
2006-04-27 06:30:41 51°13.602 2°56.099 128.1 -999 355 -999
2006-04-27 06:30:47 51°13.602 2°56.099 128.1 -999 239 -999
2006-04-27 06:30:52 51°13.602 2°56.099 128.1 -999 212 -999
2006-04-27 06:30:57 51°13.602 2°56.099 128.1 -999 37 -999
2006-04-27 06:31:02 51°13.602 2°56.099 128.1 -999 23 -999
2006-04-27 06:31:07 51°13.602 2°56.099 128.1 -999 326 -999
2006-04-27 06:31:11 51°13.602 2°56.099 128.1 -999 330 -999
2006-04-27 06:31:17 51°13.602 2°56.1 128.1 -999 218 -999
2006-04-27 06:31:21 51°13.602 2°56.1 128.1 -999 6 -999
2006-04-27 06:31:27 51°13.602 2°56.1 128.1 -999 199 -999
2006-04-27 06:31:32 51°13.602 2°56.1 128.1 -999 172 -999
2006-04-27 06:31:37 51°13.602 2°56.1 128.1 -999 -999 -999
2006-04-27 06:31:42 51°13.601 2°56.1 128.1 -999 32 -999
2006-04-27 06:31:47 51°13.601 2°56.1 128.1 -999 221 -999
2006-04-27 06:31:52 51°13.601 2°56.1 128.1 -999 233 -999
2006-04-27 06:31:57 51°13.601 2°56.1 128.1 -999 242 -999
2006-04-27 06:32:02 51°13.601 2°56.1 128.2 -999 231 -999
2006-04-27 06:32:07 51°13.602 2°56.1 128.2 -999 324 -999
2006-04-27 06:32:11 51°13.601 2°56.1 128.2 -999 47 -999
2006-04-27 06:32:17 51°13.601 2°56.1 128.2 -999 245 -999
2006-04-27 06:32:22 51°13.601 2°56.1 128.2 -999 355 -999
2006-04-27 06:32:27 51°13.601 2°56.1 128.1 -999 346 -999
2006-04-27 06:32:32 51°13.601 2°56.1 128.1 -999 21 -999
2006-04-27 06:32:37 51°13.601 2°56.1 128.1 -999 40 -999
2006-04-27 06:32:42 51°13.601 2°56.1 128.1 -999 22 -999
2006-04-27 06:32:47 51°13.601 2°56.1 128.1 -999 337 -999
2006-04-27 06:32:52 51°13.601 2°56.1 128.1 -999 209 -999
2006-04-27 06:32:57 51°13.601 2°56.1 128.1 -999 220 -999
2006-04-27 06:33:01 51°13.602 2°56.1 128.1 -999 6 -999
2006-04-27 06:33:07 51°13.602 2°56.1 128.1 -999 65 -999
2006-04-27 06:33:12 51°13.602 2°56.1 128.1 -999 218 -999
2006-04-27 06:33:17 51°13.602 2°56.1 128.1 0.1 203 -999
2006-04-27 06:33:22 51°13.602 2°56.1 128.1 -999 206 -999
2006-04-27 06:33:27 51°13.602 2°56.1 128.1 -999 210 -999
2006-04-27 06:33:32 51°13.602 2°56.1 128.1 -999 191 -999
2006-04-27 06:33:37 51°13.602 2°56.1 128.1 -999 87 -999
2006-04-27 06:33:42 51°13.602 2°56.1 128.1 -999 45 -999
2006-04-27 06:33:47 51°13.602 2°56.1 128.1 -999 346 -999
2006-04-27 06:33:52 51°13.602 2°56.1 128.1 -999 23 -999
2006-04-27 06:33:57 51°13.601 2°56.1 128.1 -999 72 -999
2006-04-27 06:34:02 51°13.601 2°56.1 128.1 -999 181 -999
2006-04-27 06:34:07 51°13.601 2°56.1 128.1 -999 150 -999
2006-04-27 06:34:12 51°13.601 2°56.1 128.1 -999 263 -999
2006-04-27 06:34:17 51°13.601 2°56.1 128.1 -999 259 -999
2006-04-27 06:34:22 51°13.601 2°56.1 128.1 -999 155 -999
2006-04-27 06:34:27 51°13.601 2°56.1 128.1 -999 186 -999
2006-04-27 06:34:31 51°13.601 2°56.1 128.2 -999 71 -999
2006-04-27 06:34:37 51°13.601 2°56.1 128.2 -999 95 -999
2006-04-27 06:34:42 51°13.601 2°56.1 128.2 -999 16 -999
2006-04-27 06:34:47 51°13.601 2°56.1 128.2 -999 28 -999
2006-04-27 06:34:52 51°13.601 2°56.1 128.2 -999 18 -999
2006-04-27 06:34:57 51°13.601 2°56.1 128.2 -999 125 -999
2006-04-27 06:35:02 51°13.601 2°56.1 128.2 -999 54 -999
2006-04-27 06:35:07 51°13.601 2°56.1 128.2 -999 235 -999
2006-04-27 06:35:12 51°13.601 2°56.1 128.2 -999 206 -999
2006-04-27 06:35:17 51°13.601 2°56.1 128.2 -999 16 -999
2006-04-27 06:35:22 51°13.601 2°56.1 128.2 -999 2 -999
2006-04-27 06:35:27 51°13.601 2°56.1 128.3 -999 12 -999
2006-04-27 06:35:31 51°13.601 2°56.099 128.3 -999 229 -999
2006-04-27 06:35:37 51°13.601 2°56.099 128.3 -999 3 -999
2006-04-27 06:35:41 51°13.601 2°56.099 128.3 -999 210 -999
2006-04-27 06:35:47 51°13.601 2°56.099 128.3 -999 219 -999
2006-04-27 06:35:52 51°13.601 2°56.099 128.3 -999 216 -999
2006-04-27 06:35:57 51°13.601 2°56.099 128.3 -999 26 -999
2006-04-27 06:36:02 51°13.601 2°56.099 128.3 -999 185 -999
2006-04-27 06:36:07 51°13.601 2°56.099 128.3 -999 149 -999
2006-04-27 06:36:11 51°13.601 2°56.099 128.3 -999 1 -999
2006-04-27 06:36:17 51°13.601 2°56.099 128.3 -999 14 -999
2006-04-27 06:36:21 51°13.601 2°56.099 128.3 -999 258 -999
2006-04-27 06:36:27 51°13.601 2°56.099 128.3 -999 196 -999
2006-04-27 06:36:32 51°13.601 2°56.099 128.3 -999 172 -999
2006-04-27 06:36:37 51°13.601 2°56.099 128.3 -999 242 -999
2006-04-27 06:36:42 51°13.601 2°56.099 128.3 -999 248 -999
2006-04-27 06:36:47 51°13.601 2°56.099 128.3 -999 30 -999
2006-04-27 06:36:52 51°13.601 2°56.099 128.4 -999 210 -999
2006-04-27 06:36:57 51°13.601 2°56.099 128.4 -999 24 -999
2006-04-27 06:37:01 51°13.601 2°56.099 128.4 -999 26 -999
2006-04-27 06:37:07 51°13.601 2°56.099 128.4 -999 269 -999
2006-04-27 06:37:12 51°13.601 2°56.099 128.4 -999 192 -999
2006-04-27 06:37:17 51°13.601 2°56.099 128.4 -999 5 -999
2006-04-27 06:37:22 51°13.601 2°56.099 128.4 -999 3 -999
2006-04-27 06:37:27 51°13.601 2°56.099 128.4 -999 82 -999
2006-04-27 06:37:32 51°13.601 2°56.099 128.4 -999 25 -999
2006-04-27 06:37:37 51°13.601 2°56.099 128.4 -999 22 -999
2006-04-27 06:37:42 51°13.601 2°56.099 128.4 -999 85 -999
2006-04-27 06:37:47 51°13.601 2°56.099 128.4 -999 67 -999
2006-04-27 06:37:52 51°13.601 2°56.099 128.4 -999 207 -999
2006-04-27 06:37:57 51°13.601 2°56.099 128.4 -999 179 -999
2006-04-27 06:38:01 51°13.601 2°56.099 128.4 -999 267 -999
2006-04-27 06:38:07 51°13.601 2°56.098 128.4 -999 232 -999
2006-04-27 06:38:12 51°13.601 2°56.098 128.4 -999 192 -999
2006-04-27 06:38:17 51°13.601 2°56.098 128.4 -999 231 -999
2006-04-27 06:38:22 51°13.601 2°56.099 128.4 -999 250 -999
2006-04-27 06:38:27 51°13.601 2°56.099 128.4 -999 8 -999
2006-04-27 06:38:32 51°13.601 2°56.099 128.4 -999 22 -999
2006-04-27 06:38:37 51°13.601 2°56.099 128.4 -999 222 -999
2006-04-27 06:38:42 51°13.601 2°56.099 128.4 -999 215 -999
2006-04-27 06:38:47 51°13.601 2°56.099 128.4 -999 215 -999
2006-04-27 06:38:52 51°13.601 2°56.099 128.4 -999 28 -999
2006-04-27 06:38:57 51°13.601 2°56.099 128.4 -999 260 -999
2006-04-27 06:39:02 51°13.601 2°56.099 128.4 -999 23 -999
2006-04-27 06:39:07 51°13.601 2°56.099 128.4 -999 24 -999
2006-04-27 06:39:12 51°13.601 2°56.099 128.4 -999 335 -999
2006-04-27 06:39:17 51°13.601 2°56.099 128.4 -999 206 -999
2006-04-27 06:39:21 51°13.601 2°56.099 128.4 -999 53 -999
2006-04-27 06:39:27 51°13.601 2°56.099 128.4 -999 6 -999
2006-04-27 06:39:32 51°13.601 2°56.099 128.4 -999 15 -999
2006-04-27 06:39:37 51°13.601 2°56.098 128.4 -999 329 -999
2006-04-27 06:39:42 51°13.601 2°56.098 128.4 -999 23 -999
2006-04-27 06:39:47 51°13.601 2°56.098 128.4 -999 62 -999
2006-04-27 06:39:52 51°13.601 2°56.098 128.4 -999 166 -999
2006-04-27 06:39:57 51°13.601 2°56.098 128.4 -999 238 -999
2006-04-27 06:40:01 51°13.601 2°56.098 128.4 -999 214 -999
2006-04-27 06:40:07 51°13.601 2°56.098 128.4 -999 203 -999
2006-04-27 06:40:12 51°13.601 2°56.098 128.4 -999 195 -999
2006-04-27 06:40:17 51°13.601 2°56.098 128.4 -999 221 -999
2006-04-27 06:40:22 51°13.601 2°56.098 128.4 -999 354 -999
2006-04-27 06:40:27 51°13.601 2°56.098 128.4 -999 193 -999
2006-04-27 06:40:32 51°13.601 2°56.098 128.4 -999 166 -999
2006-04-27 06:40:37 51°13.602 2°56.098 128.4 -999 169 -999
2006-04-27 06:40:42 51°13.602 2°56.098 128.4 -999 163 -999
2006-04-27 06:40:47 51°13.602 2°56.099 128.4 -999 73 -999
2006-04-27 06:40:52 51°13.602 2°56.098 128.4 -999 208 -999
2006-04-27 06:40:57 51°13.602 2°56.099 128.4 -999 4 -999
2006-04-27 06:41:02 51°13.602 2°56.099 128.4 -999 10 -999
2006-04-27 06:41:07 51°13.602 2°56.099 128.4 -999 272 -999
2006-04-27 06:41:11 51°13.602 2°56.099 128.4 -999 21 -999
2006-04-27 06:41:17 51°13.602 2°56.099 128.4 -999 61 -999
2006-04-27 06:41:21 51°13.601 2°56.099 128.4 -999 185 -999
2006-04-27 06:41:27 51°13.601 2°56.099 128.4 -999 157 -999
2006-04-27 06:41:32 51°13.601 2°56.099 128.4 -999 163 -999
2006-04-27 06:41:37 51°13.601 2°56.099 128.4 -999 344 -999
2006-04-27 06:41:42 51°13.601 2°56.099 128.4 -999 226 -999
2006-04-27 06:41:47 51°13.601 2°56.099 128.4 -999 221 -999
2006-04-27 06:41:52 51°13.601 2°56.099 128.4 -999 225 -999
2006-04-27 06:41:57 51°13.602 2°56.099 128.4 -999 339 -999
2006-04-27 06:42:01 51°13.602 2°56.099 128.4 -999 251 -999
2006-04-27 06:42:07 51°13.602 2°56.099 128.4 -999 28 -999
2006-04-27 06:42:12 51°13.602 2°56.099 128.4 -999 206 -999
2006-04-27 06:42:17 51°13.602 2°56.099 128.4 -999 1 -999
2006-04-27 06:42:22 51°13.602 2°56.099 128.4 -999 210 -999
2006-04-27 06:42:27 51°13.602 2°56.099 128.4 -999 267 -999
2006-04-27 06:42:32 51°13.602 2°56.099 128.4 -999 2 -999
2006-04-27 06:42:37 51°13.602 2°56.099 128.4 -999 266 -999
2006-04-27 06:42:42 51°13.602 2°56.099 128.4 -999 148 -999
2006-04-27 06:42:47 51°13.602 2°56.099 128.4 -999 347 -999
2006-04-27 06:42:52 51°13.602 2°56.099 128.3 -999 16 -999
2006-04-27 06:42:57 51°13.602 2°56.099 128.3 -999 60 -999
2006-04-27 06:43:02 51°13.601 2°56.099 128.2 -999 135 -999
2006-04-27 06:43:07 51°13.601 2°56.099 128.1 -999 146 -999
2006-04-27 06:43:12 51°13.602 2°56.099 128 -999 254 -999
2006-04-27 06:43:17 51°13.602 2°56.099 128 -999 327 -999
2006-04-27 06:43:21 51°13.602 2°56.099 128 -999 283 -999
2006-04-27 06:43:27 51°13.602 2°56.099 128 -999 219 -999
2006-04-27 06:43:32 51°13.601 2°56.099 128 -999 6 -999
2006-04-27 06:43:37 51°13.601 2°56.099 128 -999 322 -999
2006-04-27 06:43:42 51°13.601 2°56.099 128 -999 256 -999
2006-04-27 06:43:47 51°13.602 2°56.099 128 -999 248 -999
2006-04-27 06:43:52 51°13.602 2°56.099 128 -999 246 -999
2006-04-27 06:43:57 51°13.602 2°56.099 128.1 -999 273 -999
2006-04-27 06:44:02 51°13.602 2°56.099 128.1 -999 220 -999
2006-04-27 06:44:07 51°13.602 2°56.099 128.3 -999 187 -999
2006-04-27 06:44:11 51°13.602 2°56.099 128.4 -999 109 -999
2006-04-27 06:44:17 51°13.602 2°56.099 128.4 -999 189 -999
2006-04-27 06:44:21 51°13.602 2°56.099 128.4 -999 57 -999
2006-04-27 06:44:27 51°13.602 2°56.099 128.4 -999 46 -999
2006-04-27 06:44:32 51°13.602 2°56.099 128.4 -999 59 -999
2006-04-27 06:44:37 51°13.602 2°56.099 128.3 -999 169 -999
2006-04-27 06:44:42 51°13.602 2°56.099 128.2 -999 146 -999
2006-04-27 06:44:47 51°13.602 2°56.099 128.1 -999 125 -999
2006-04-27 06:44:52 51°13.602 2°56.099 128.1 -999 202 -999
2006-04-27 06:44:57 51°13.602 2°56.099 128.1 -999 210 -999
2006-04-27 06:45:01 51°13.602 2°56.099 128.1 -999 231 -999
2006-04-27 06:45:07 51°13.602 2°56.099 128.2 -999 195 -999
2006-04-27 06:45:12 51°13.602 2°56.099 128.4 -999 182 -999
2006-04-27 06:45:17 51°13.602 2°56.099 128.4 -999 185 -999
2006-04-27 06:45:22 51°13.602 2°56.099 128.5 -999 60 -999
2006-04-27 06:45:27 51°13.602 2°56.099 128.5 -999 224 -999
2006-04-27 06:45:32 51°13.602 2°56.099 128.5 -999 249 -999
2006-04-27 06:45:37 51°13.602 2°56.099 128.5 -999 241 -999
2006-04-27 06:45:42 51°13.602 2°56.099 128.5 -999 273 -999
2006-04-27 06:45:47 51°13.602 2°56.099 128.5 -999 35 -999
2006-04-27 06:45:52 51°13.602 2°56.1 128.5 -999 36 -999
2006-04-27 06:45:57 51°13.602 2°56.1 128.5 -999 150 -999
2006-04-27 06:46:02 51°13.602 2°56.1 128.3 -999 144 -999
2006-04-27 06:46:07 51°13.602 2°56.1 128.2 -999 26 -999
2006-04-27 06:46:12 51°13.602 2°56.1 127.9 -999 133 -999
2006-04-27 06:46:17 51°13.602 2°56.099 127.9 -999 191 -999
2006-04-27 06:46:21 51°13.602 2°56.099 127.9 -999 265 -999
2006-04-27 06:46:27 51°13.602 2°56.099 127.9 -999 349 -999
2006-04-27 06:46:32 51°13.602 2°56.099 127.9 -999 192 -999
2006-04-27 06:46:37 51°13.602 2°56.099 127.9 -999 225 -999
2006-04-27 06:46:42 51°13.602 2°56.099 127.9 -999 280 -999
2006-04-27 06:46:47 51°13.602 2°56.099 127.9 -999 18 -999
2006-04-27 06:46:52 51°13.602 2°56.099 127.9 -999 138 -999
2006-04-27 06:46:57 51°13.602 2°56.1 127.9 -999 54 -999
2006-04-27 06:47:02 51°13.602 2°56.1 127.9 -999 62 -999
2006-04-27 06:47:07 51°13.602 2°56.1 127.7 -999 76 -999
2006-04-27 06:47:12 51°13.602 2°56.1 127.4 -999 140 -999
2006-04-27 06:47:17 51°13.602 2°56.1 127 0.1 177 -999
2006-04-27 06:47:22 51°13.602 2°56.099 126.5 -999 176 -999
2006-04-27 06:47:27 51°13.602 2°56.1 126.2 -999 107 -999
2006-04-27 06:47:31 51°13.602 2°56.1 126.1 -999 92 -999
2006-04-27 06:47:37 51°13.602 2°56.099 125.8 -999 182 -999
2006-04-27 06:47:41 51°13.602 2°56.099 125.5 0.1 177 -999
2006-04-27 06:47:47 51°13.602 2°56.099 125.3 -999 169 -999
2006-04-27 06:47:52 51°13.602 2°56.099 124.9 -999 207 -999
2006-04-27 06:47:57 51°13.602 2°56.099 124.6 -999 226 -999
2006-04-27 06:48:02 51°13.602 2°56.099 124.2 -999 195 -999
2006-04-27 06:48:07 51°13.602 2°56.099 123.8 -999 213 -999
2006-04-27 06:48:11 51°13.601 2°56.099 123.4 -999 219 -999
2006-04-27 06:48:17 51°13.601 2°56.099 123 -999 181 -999
2006-04-27 06:48:21 51°13.601 2°56.099 122.6 0.1 185 -999
2006-04-27 06:48:27 51°13.601 2°56.099 122.3 0.1 165 -999
2006-04-27 06:48:32 51°13.601 2°56.099 121.9 0.1 133 -999
2006-04-27 06:48:37 51°13.601 2°56.099 121.4 0.1 167 -999
2006-04-27 06:48:42 51°13.601 2°56.099 121 -999 193 -999
2006-04-27 06:48:47 51°13.601 2°56.099 120.4 -999 191 -999
2006-04-27 06:48:52 51°13.601 2°56.099 119.9 0.1 207 -999
2006-04-27 06:48:57 51°13.601 2°56.099 119.4 0.1 197 -999
2006-04-27 06:49:01 51°13.601 2°56.099 119 -999 184 -999
2006-04-27 06:49:07 51°13.601 2°56.099 118.3 0.1 158 -999
2006-04-27 06:49:12 51°13.601 2°56.099 117.8 0.1 142 -999
2006-04-27 06:49:17 51°13.601 2°56.1 117.3 0.2 147 -999
2006-04-27 06:49:22 51°13.601 2°56.099 116.7 -999 235 -999
2006-04-27 06:49:27 51°13.601 2°56.099 116.1 0.1 353 -999
2006-04-27 06:49:32 51°13.601 2°56.099 115.7 0.1 183 -999
2006-04-27 06:49:37 51°13.601 2°56.099 115.5 0.1 183 -999
2006-04-27 06:49:41 51°13.601 2°56.1 115 -999 179 -999
2006-04-27 06:49:47 51°13.601 2°56.1 114.5 -999 172 -999
2006-04-27 06:49:52 51°13.601 2°56.1 114.1 0.1 189 -999
2006-04-27 06:49:57 51°13.601 2°56.1 113.8 0.1 192 -999
2006-04-27 06:50:02 51°13.601 2°56.1 113.2 -999 200 -999
2006-04-27 06:50:07 51°13.601 2°56.099 112.6 0.1 317 -999
2006-04-27 06:50:12 51°13.601 2°56.099 112.4 0.3 284 -999
2006-04-27 06:50:17 51°13.602 2°56.097 112.3 0.5 291 -999
2006-04-27 06:50:22 51°13.602 2°56.096 112.2 0.7 293 -999
2006-04-27 06:50:27 51°13.603 2°56.094 112.2 1 290 -999
2006-04-27 06:50:32 51°13.603 2°56.091 112.3 1.3 288 -999
2006-04-27 06:50:37 51°13.604 2°56.087 112.5 1.5 288 -999
2006-04-27 06:50:41 51°13.604 2°56.084 112.7 1.7 289 -999
2006-04-27 06:50:47 51°13.605 2°56.079 113 2 290 -999
2006-04-27 06:50:52 51°13.607 2°56.074 113.2 2.3 292 -999
2006-04-27 06:50:57 51°13.608 2°56.069 113.6 2.5 291 -999
2006-04-27 06:51:02 51°13.609 2°56.063 113.9 2.7 291 -999
2006-04-27 06:51:07 51°13.611 2°56.057 114.1 3 291 -999
2006-04-27 06:51:12 51°13.613 2°56.05 114.3 3.2 292 -999
2006-04-27 06:51:17 51°13.614 2°56.043 114.4 3.4 292 -999
2006-04-27 06:51:22 51°13.616 2°56.036 114.5 3.5 292 -999
2006-04-27 06:51:27 51°13.618 2°56.028 114.7 3.7 292 -999
2006-04-27 06:51:32 51°13.62 2°56.02 114.9 3.9 293 -999
2006-04-27 06:51:37 51°13.623 2°56.012 115.1 4 292 -999
2006-04-27 06:51:42 51°13.625 2°56.003 115.1 4.1 292 -999
2006-04-27 06:51:47 51°13.627 2°55.994 114.7 4.3 291 -999
2006-04-27 06:51:52 51°13.629 2°55.985 114 4.4 290 -999
2006-04-27 06:51:57 51°13.631 2°55.976 113.6 4.4 288 -999
2006-04-27 06:52:01 51°13.633 2°55.969 113.3 4.4 289 -999
2006-04-27 06:52:07 51°13.635 2°55.958 113.3 4.4 288 -999
2006-04-27 06:52:12 51°13.637 2°55.949 113.9 4.4 289 -999
2006-04-27 06:52:17 51°13.639 2°55.94 114.7 4.4 290 -999
2006-04-27 06:52:22 51°13.642 2°55.931 116.2 4.4 290 -999
2006-04-27 06:52:27 51°13.644 2°55.922 118.1 4.3 293 -999
2006-04-27 06:52:32 51°13.646 2°55.913 120.1 4.4 295 -999
2006-04-27 06:52:37 51°13.649 2°55.904 122.2 4.5 296 -999
2006-04-27 06:52:41 51°13.652 2°55.897 123.9 4.6 299 -999
2006-04-27 06:52:47 51°13.655 2°55.887 125.5 4.7 300 -999
2006-04-27 06:52:52 51°13.659 2°55.878 127.2 4.7 301 -999
2006-04-27 06:52:57 51°13.662 2°55.869 128.4 4.7 303 -999
2006-04-27 06:53:01 51°13.665 2°55.862 129.7 4.8 304 -999
2006-04-27 06:53:07 51°13.67 2°55.851 130.6 4.8 305 -999
2006-04-27 06:53:12 51°13.674 2°55.842 131.5 4.9 306 -999
2006-04-27 06:53:17 51°13.678 2°55.834 132.3 5 307 -999
2006-04-27 06:53:21 51°13.682 2°55.827 133.2 5.1 309 -999
2006-04-27 06:53:27 51°13.687 2°55.817 133.9 4.8 310 -999
2006-04-27 06:53:32 51°13.691 2°55.81 134.4 4.5 310 -999
2006-04-27 06:53:37 51°13.695 2°55.802 134.8 4.4 312 -999
2006-04-27 06:53:42 51°13.699 2°55.795 134.7 4.3 311 -999
2006-04-27 06:53:47 51°13.702 2°55.788 134.2 4.2 311 -999
2006-04-27 06:53:52 51°13.706 2°55.781 133.4 4.2 310 -999
2006-04-27 06:53:57 51°13.71 2°55.773 132.4 4.2 309 -999
2006-04-27 06:54:01 51°13.713 2°55.767 131 4.3 307 -999
2006-04-27 06:54:07 51°13.717 2°55.758 129.2 4.3 306 -999
2006-04-27 06:54:12 51°13.72 2°55.751 127.1 4.1 305 -999
2006-04-27 06:54:17 51°13.723 2°55.744 125.7 3.8 303 -999
2006-04-27 06:54:22 51°13.725 2°55.737 123.8 3.7 302 -999
2006-04-27 06:54:27 51°13.727 2°55.731 122.5 3.4 300 -999
2006-04-27 06:54:32 51°13.729 2°55.725 120.6 3.2 299 -999
2006-04-27 06:54:37 51°13.731 2°55.72 118.9 2.6 297 -999
2006-04-27 06:54:41 51°13.732 2°55.717 116.6 2.1 294 -999
2006-04-27 06:54:47 51°13.733 2°55.714 113.6 1.3 292 -999
2006-04-27 06:54:52 51°13.733 2°55.713 109.8 0.9 289 8.9
2006-04-27 06:54:57 51°13.734 2°55.712 105.9 0.4 301 9.1
2006-04-27 06:55:01 51°13.734 2°55.713 102.6 0.2 8 -999
2006-04-27 06:55:07 51°13.734 2°55.714 97.9 0.5 75 8.9
2006-04-27 06:55:12 51°13.734 2°55.716 92.5 0.9 84 -999
2006-04-27 06:55:17 51°13.734 2°55.718 85 0.9 84 -999
2006-04-27 06:55:22 51°13.735 2°55.72 79.1 0.8 73 4.7
2006-04-27 06:55:27 51°13.735 2°55.721 75 0.6 81 4.9
2006-04-27 06:55:32 51°13.735 2°55.721 72.3 0.2 104 4.8
2006-04-27 06:55:37 51°13.734 2°55.721 68.6 0.1 173 4.7
2006-04-27 06:55:41 51°13.734 2°55.72 65.7 0.6 229 4.8
2006-04-27 06:55:47 51°13.732 2°55.717 62.8 1.1 232 4.8
2006-04-27 06:55:51 51°13.731 2°55.716 60.2 1.3 230 4.9
2006-04-27 06:55:57 51°13.73 2°55.713 58 1.3 230 8.9
2006-04-27 06:56:01 51°13.729 2°55.712 56.3 1.3 226 -999
2006-04-27 06:56:07 51°13.728 2°55.71 54.9 1.1 226 -999
2006-04-27 06:56:12 51°13.726 2°55.708 53.7 0.9 220 -999
2006-04-27 06:56:17 51°13.725 2°55.708 51.6 0.7 219 4.8
2006-04-27 06:56:21 51°13.725 2°55.707 49.4 0.4 214 -999
2006-04-27 06:56:27 51°13.725 2°55.707 46.8 0.1 213 -999
2006-04-27 06:56:32 51°13.725 2°55.707 43.7 -999 31 -999
2006-04-27 06:56:37 51°13.726 2°55.708 40.4 0.6 33 -999
2006-04-27 06:56:42 51°13.727 2°55.709 35.8 1 22 -999
2006-04-27 06:56:47 51°13.729 2°55.71 30.8 1.3 23 -999
2006-04-27 06:56:52 51°13.731 2°55.711 25.7 1.6 16 -999
2006-04-27 06:56:57 51°13.734 2°55.712 20.3 1.7 14 -999
2006-04-27 06:57:02 51°13.737 2°55.712 15.8 2 8 -999
2006-04-27 06:57:07 51°13.74 2°55.713 8.9 2.4 1 8.9
2006-04-27 06:57:12 51°13.743 2°55.712 4.3 2.5 357 8.9
2006-04-27 06:57:17 51°13.747 2°55.71 358.5 2.7 349 8.6
2006-04-27 06:57:20 51°13.75 2°55.709 353.8 3 346 8.6
2006-04-27 06:57:27 51°13.756 2°55.705 347.6 3.5 338 8.2
2006-04-27 06:57:32 51°13.761 2°55.701 342 3.8 335 8.3
2006-04-27 06:57:37 51°13.767 2°55.696 337.4 4.4 331 8.2
2006-04-27 06:57:41 51°13.771 2°55.691 334.3 4.8 331 8.1
2006-04-27 06:57:47 51°13.779 2°55.684 333.1 5.2 330 8
2006-04-27 06:57:50 51°13.783 2°55.681 333.4 5.5 330 8.1
2006-04-27 06:57:57 51°13.789 2°55.675 334.4 4.8 331 -999
2006-04-27 06:58:01 51°13.799 2°55.666 334.5 5.8 330 -999
2006-04-27 06:58:07 51°13.808 2°55.658 334.4 6.4 331 -999
2006-04-27 06:58:11 51°13.815 2°55.652 335 6.7 332 8.4
2006-04-27 06:58:16 51°13.823 2°55.645 336.1 6.8 333 8.2
2006-04-27 06:58:21 51°13.832 2°55.638 336.8 6.9 333 8.4
2006-04-27 06:58:26 51°13.841 2°55.631 337.3 5.8 333 8.5
2006-04-27 06:58:32 51°13.851 2°55.622 337.5 6.7 333 -999
2006-04-27 06:58:37 51°13.861 2°55.615 338.7 7.4 334 8.4
2006-04-27 06:58:41 51°13.868 2°55.609 339 7.4 334 -999
2006-04-27 06:58:47 51°13.879 2°55.601 339.8 7.5 334 -999
2006-04-27 06:58:52 51°13.889 2°55.594 340.4 7.6 335 -999
2006-04-27 06:58:57 51°13.899 2°55.587 340.3 7.7 335 -999
2006-04-27 06:59:01 51°13.906 2°55.581 340.4 5.5 336 -999
2006-04-27 06:59:07 51°13.919 2°55.573 341 7.9 337 -999
2006-04-27 06:59:12 51°13.928 2°55.565 340.6 7.9 335 -999
2006-04-27 06:59:17 51°13.938 2°55.558 340.6 7.9 336 -999
2006-04-27 06:59:21 51°13.946 2°55.553 341.3 8 337 -999
2006-04-27 06:59:27 51°13.959 2°55.544 341.2 8 336 -999
2006-04-27 06:59:32 51°13.969 2°55.537 340.6 8.1 336 -999
2006-04-27 06:59:37 51°13.979 2°55.53 341.1 8 338 -999
2006-04-27 06:59:41 51°13.987 2°55.524 341.7 8.1 337 -999
2006-04-27 06:59:47 51°13.999 2°55.516 341.7 8.1 337 -999
2006-04-27 06:59:52 51°14.01 2°55.509 341.6 8.1 337 -999
2006-04-27 06:59:57 51°14.02 2°55.502 341.6 8.1 337 -999
2006-04-27 07:00:01 51°14.028 2°55.496 341.3 8 336 -999
2006-04-27 07:00:07 51°14.04 2°55.487 340.9 8 336 -999
2006-04-27 07:00:12 51°14.05 2°55.48 340.2 8 335 -999
2006-04-27 07:00:17 51°14.061 2°55.472 340 8.1 335 -999
2006-04-27 07:00:22 51°14.071 2°55.465 340.3 8.1 336 -999
2006-04-27 07:00:27 51°14.081 2°55.457 340 8.1 335 -999
2006-04-27 07:00:32 51°14.091 2°55.449 339.2 8.2 334 -999
2006-04-27 07:00:37 51°14.102 2°55.441 339.1 8.2 334 -999
2006-04-27 07:00:41 51°14.11 2°55.435 339.1 8.2 334 -999
2006-04-27 07:00:47 51°14.122 2°55.425 338.2 8.2 333 -999
2006-04-27 07:00:52 51°14.132 2°55.417 337.8 8.2 333 -999
2006-04-27 07:00:57 51°14.142 2°55.408 337 8.2 332 -999
2006-04-27 07:01:01 51°14.149 2°55.4 335.5 8.2 330 -999
2006-04-27 07:01:07 51°14.161 2°55.389 334.5 8.3 330 -999
2006-04-27 07:01:12 51°14.171 2°55.38 334.3 8.3 329 -999
2006-04-27 07:01:17 51°14.181 2°55.37 333.5 8.4 328 -999
2006-04-27 07:01:21 51°14.189 2°55.361 331.9 8.4 326 -999
2006-04-27 07:01:27 51°14.201 2°55.348 330.9 8.5 325 -999
2006-04-27 07:01:32 51°14.211 2°55.337 330.1 8.6 325 -999
2006-04-27 07:01:37 51°14.22 2°55.326 329 8.6 324 -999
2006-04-27 07:01:41 51°14.228 2°55.317 327.3 8.6 322 -999
2006-04-27 07:01:47 51°14.238 2°55.301 324.9 8.6 318 -999
2006-04-27 07:01:52 51°14.247 2°55.288 322.2 8.6 316 -999
2006-04-27 07:01:57 51°14.256 2°55.275 320.4 8.6 315 -999
2006-04-27 07:02:01 51°14.262 2°55.263 318.1 8.7 313 -999
2006-04-27 07:02:07 51°14.271 2°55.245 315.5 8.7 310 -999
2006-04-27 07:02:12 51°14.279 2°55.23 313.9 8.7 309 -999
2006-04-27 07:02:17 51°14.286 2°55.215 313.4 8.7 309 -999
2006-04-27 07:02:22 51°14.294 2°55.2 312.7 8.8 307 -999
2006-04-27 07:02:27 51°14.301 2°55.184 311.5 8.8 307 -999
2006-04-27 07:02:32 51°14.308 2°55.168 310.8 8.8 306 -999
2006-04-27 07:02:37 51°14.316 2°55.153 310.9 8.8 307 -999
2006-04-27 07:02:41 51°14.322 2°55.141 311.5 8.8 307 8.8
2006-04-27 07:02:47 51°14.331 2°55.123 312 8.8 309 -999
2006-04-27 07:02:52 51°14.339 2°55.108 312.8 8.9 309 -999
2006-04-27 07:02:57 51°14.347 2°55.093 314.3 8.9 312 -999
2006-04-27 07:03:02 51°14.356 2°55.078 315.8 8.9 312 -999
2006-04-27 07:03:07 51°14.364 2°55.064 317.7 8.9 315 8.7
2006-04-27 07:03:12 51°14.373 2°55.051 319.3 8.9 316 8.5
2006-04-27 07:03:17 51°14.382 2°55.037 320.8 9 317 8.6
2006-04-27 07:03:21 51°14.39 2°55.026 322.1 9.1 316 8.8
2006-04-27 07:03:27 51°14.4 2°55.008 322.8 9.4 314 8.6
2006-04-27 07:03:29 51°14.404 2°55.002 322.4 9.6 314 8.6
2006-04-27 07:03:37 51°14.42 2°54.977 321.8 9.8 313 8.6
2006-04-27 07:03:42 51°14.43 2°54.962 324.3 10 316 8.5
2006-04-27 07:03:47 51°14.442 2°54.948 327.9 10.3 321 8.5
2006-04-27 07:03:51 51°14.451 2°54.936 329.5 10.5 321 8.4
2006-04-27 07:03:57 51°14.464 2°54.918 330 10.7 321 8.3
2006-04-27 07:04:01 51°14.474 2°54.906 329.6 10.9 321 8.2
2006-04-27 07:04:07 51°14.489 2°54.888 330.5 11 323 8
2006-04-27 07:04:12 51°14.501 2°54.874 332.5 11.2 325 8
2006-04-27 07:04:16 51°14.512 2°54.863 334.7 11.4 326 7.9
2006-04-27 07:04:20 51°14.523 2°54.851 335.7 11.5 325 7.9
2006-04-27 07:04:27 51°14.541 2°54.83 335 11.6 325 7.8
2006-04-27 07:04:32 51°14.555 2°54.816 334.3 11.8 325 7.8
2006-04-27 07:04:37 51°14.569 2°54.802 335.2 11.9 328 7.8
2006-04-27 07:04:41 51°14.581 2°54.792 338.8 11.9 331 7.7
2006-04-27 07:04:47 51°14.598 2°54.777 341.1 12 330 7.7
2006-04-27 07:04:52 51°14.612 2°54.763 340.7 12 330 7.6
2006-04-27 07:04:57 51°14.627 2°54.749 339.1 12.1 328 7.7
2006-04-27 07:05:02 51°14.641 2°54.735 338.3 12.2 329 7.7
2006-04-27 07:05:07 51°14.656 2°54.722 338.9 12.2 331 7.6
2006-04-27 07:05:12 51°14.671 2°54.708 339.9 12.2 331 7.6
2006-04-27 07:05:16 51°14.683 2°54.698 340.3 12.3 330 7.7
2006-04-27 07:05:22 51°14.7 2°54.681 340.3 12.3 330 7.6
2006-04-27 07:05:27 51°14.715 2°54.669 340.9 12.3 332 7.7
2006-04-27 07:05:32 51°14.73 2°54.657 341.5 12.3 333 7.6
2006-04-27 07:05:36 51°14.743 2°54.648 343.1 12.3 336 7.6
2006-04-27 07:05:40 51°14.755 2°54.639 344.6 12.3 337 7.6
2006-04-27 07:05:47 51°14.777 2°54.624 345.8 12.3 337 7.5
2006-04-27 07:05:52 51°14.793 2°54.613 346.1 12.3 336 7.5
2006-04-27 07:05:57 51°14.808 2°54.602 345.6 12.3 335 7.5
2006-04-27 07:06:01 51°14.821 2°54.592 344.9 12.3 335 5.5
2006-04-27 07:06:07 51°14.839 2°54.579 344.6 12.3 335 7.4
2006-04-27 07:06:12 51°14.855 2°54.569 344.6 12.3 336 7.3
2006-04-27 07:06:17 51°14.871 2°54.558 344.7 12.3 336 7.4
2006-04-27 07:06:21 51°14.883 2°54.548 344.7 12.3 335 5.4
2006-04-27 07:06:27 51°14.901 2°54.534 344.4 12.3 334 7.3
2006-04-27 07:06:31 51°14.913 2°54.524 343.7 12.3 333 7.5
2006-04-27 07:06:37 51°14.931 2°54.508 342.8 12.3 332 7.4
2006-04-27 07:06:41 51°14.943 2°54.498 341.6 12.4 331 7.3
2006-04-27 07:06:47 51°14.961 2°54.482 341.1 12.4 331 5.4
2006-04-27 07:06:51 51°14.973 2°54.471 340.8 12.3 330 7.1
2006-04-27 07:06:57 51°14.99 2°54.453 339.7 12.2 329 7
2006-04-27 07:07:01 51°15.001 2°54.44 337.7 12.2 329 6.9
2006-04-27 07:07:07 51°15.017 2°54.42 335.2 12.2 322 6.9
2006-04-27 07:07:12 51°15.03 2°54.403 333.2 12.1 322 6.8
2006-04-27 07:07:17 51°15.042 2°54.386 332 12.1 320 6.8
2006-04-27 07:07:21 51°15.053 2°54.372 330.7 12.1 319 6.8
2006-04-27 07:07:27 51°15.068 2°54.351 329.8 12.1 319 6.8
2006-04-27 07:07:32 51°15.081 2°54.333 329.4 12.1 318 6.8
2006-04-27 07:07:37 51°15.093 2°54.315 328.8 12.2 318 6.9
2006-04-27 07:07:41 51°15.104 2°54.301 328.7 12.2 319 6.9
2006-04-27 07:07:47 51°15.119 2°54.28 329.5 12.2 320 7
2006-04-27 07:07:52 51°15.132 2°54.263 330.1 12.3 321 7.1
2006-04-27 07:07:57 51°15.146 2°54.247 331.5 12.3 322 7
2006-04-27 07:08:02 51°15.16 2°54.231 332.8 12.3 324 7.1
2006-04-27 07:08:07 51°15.175 2°54.216 334.3 12.3 326 7.1
2006-04-27 07:08:11 51°15.186 2°54.205 335.8 12.3 329 7.2
2006-04-27 07:08:17 51°15.204 2°54.19 339 12.2 331 7.3
2006-04-27 07:08:21 51°15.216 2°54.18 341.1 12.2 333 7.4
2006-04-27 07:08:27 51°15.234 2°54.167 343.7 12.1 335 7.3
2006-04-27 07:08:31 51°15.247 2°54.158 345 12.2 336 7.4
2006-04-27 07:08:37 51°15.265 2°54.144 346.1 12.2 336 7.4
2006-04-27 07:08:40 51°15.274 2°54.138 346.2 12.2 335 7.5
2006-04-27 07:08:47 51°15.296 2°54.121 346 12.3 334 7.5
2006-04-27 07:08:52 51°15.311 2°54.108 345.2 12.3 333 7.6
2006-04-27 07:08:57 51°15.326 2°54.096 344.2 12.4 332 7.7
2006-04-27 07:09:02 51°15.341 2°54.081 343.3 12.4 331 7.7
2006-04-27 07:09:07 51°15.355 2°54.066 341.2 12.5 327 7.8
2006-04-27 07:09:12 51°15.369 2°54.05 338.3 12.6 326 7.9
2006-04-27 07:09:17 51°15.384 2°54.033 335.4 12.7 324 8
2006-04-27 07:09:21 51°15.395 2°54.02 334.6 12.7 324 8.1
2006-04-27 07:09:27 51°15.412 2°54 335.1 12.7 325 8.1
2006-04-27 07:09:32 51°15.426 2°53.983 335.3 12.7 323 8.1
2006-04-27 07:09:37 51°15.441 2°53.967 334.4 12.7 324 8.2
2006-04-27 07:09:41 51°15.452 2°53.954 335.2 12.7 324 8.3
2006-04-27 07:09:47 51°15.47 2°53.935 336.7 12.7 326 8.3
2006-04-27 07:09:52 51°15.484 2°53.919 336.7 12.8 325 8.4
2006-04-27 07:09:56 51°15.496 2°53.906 336.7 12.7 326 8.4
2006-04-27 07:10:01 51°15.51 2°53.89 336.8 12.7 325 8.5
2006-04-27 07:10:07 51°15.528 2°53.871 336.6 12.7 326 8.6
2006-04-27 07:10:12 51°15.542 2°53.856 337.1 12.7 326 8.6
2006-04-27 07:10:17 51°15.557 2°53.84 337.6 12.7 326 8.6
2006-04-27 07:10:22 51°15.572 2°53.825 337.7 12.7 327 8.8
2006-04-27 07:10:27 51°15.586 2°53.809 338.3 12.7 326 8.8
2006-04-27 07:10:31 51°15.598 2°53.796 337.8 12.7 326 8.7
2006-04-27 07:10:37 51°15.616 2°53.777 337.4 12.8 326 8.7
2006-04-27 07:10:41 51°15.627 2°53.765 337.5 12.7 326 8.8
2006-04-27 07:10:47 51°15.645 2°53.746 337.6 12.7 326 8.8
2006-04-27 07:10:52 51°15.659 2°53.73 337.3 12.7 325 8.9
2006-04-27 07:10:56 51°15.671 2°53.717 336.7 12.7 325 8.9
2006-04-27 07:11:00 51°15.682 2°53.704 336.4 12.8 323 9
2006-04-27 07:11:07 51°15.702 2°53.68 335.3 12.7 323 9.1
2006-04-27 07:11:11 51°15.713 2°53.666 334.5 12.7 322 9.1
2006-04-27 07:11:17 51°15.73 2°53.646 333.9 12.7 323 9.2
2006-04-27 07:11:21 51°15.742 2°53.633 334.2 12.7 324 9.2
2006-04-27 07:11:26 51°15.757 2°53.618 335.4 12.7 327 9.3
2006-04-27 07:11:31 51°15.771 2°53.602 336.6 12.7 326 9.3
2006-04-27 07:11:37 51°15.789 2°53.584 337.6 12.6 327 9.4
2006-04-27 07:11:40 51°15.797 2°53.575 338.2 12.6 328 9.4
2006-04-27 07:11:47 51°15.818 2°53.554 339.5 12.6 328 9.4
2006-04-27 07:11:51 51°15.83 2°53.542 339.8 12.7 327 9.5
2006-04-27 07:11:56 51°15.844 2°53.526 338.7 12.7 325 9.5
2006-04-27 07:12:00 51°15.855 2°53.512 337.5 12.7 323 9.6
2006-04-27 07:12:07 51°15.875 2°53.487 335.9 12.8 321 9.7
2006-04-27 07:12:12 51°15.888 2°53.469 334.1 12.8 319 9.6
2006-04-27 07:12:17 51°15.902 2°53.45 332.1 12.9 318 9.7
2006-04-27 07:12:22 51°15.915 2°53.431 331.1 12.9 319 9.8
2006-04-27 07:12:27 51°15.929 2°53.413 332.3 12.9 320 9.8
2006-04-27 07:12:32 51°15.943 2°53.396 333 12.9 321 9.8
2006-04-27 07:12:37 51°15.957 2°53.378 333.1 12.9 321 9.9
2006-04-27 07:12:42 51°15.971 2°53.36 333.1 12.8 321 9.9
2006-04-27 07:12:47 51°15.984 2°53.342 333.7 12.8 321 10
2006-04-27 07:12:51 51°15.996 2°53.328 334 12.8 322 10
2006-04-27 07:12:57 51°16.012 2°53.307 334.3 12.8 322 10
2006-04-27 07:13:01 51°16.024 2°53.294 334.7 12.7 323 10
2006-04-27 07:13:07 51°16.041 2°53.273 336.1 12.7 324 10.1
2006-04-27 07:13:12 51°16.056 2°53.258 336.3 12.7 325 10.1
2006-04-27 07:13:16 51°16.067 2°53.246 337 12.6 328 10.2
2006-04-27 07:13:20 51°16.079 2°53.233 338.2 12.7 327 10.2
2006-04-27 07:13:27 51°16.1 2°53.213 338.2 12.7 328 10.2
2006-04-27 07:13:32 51°16.115 2°53.197 338.5 12.8 327 10.3
2006-04-27 07:13:37 51°16.13 2°53.182 338.5 12.8 328 10.3
2006-04-27 07:13:40 51°16.139 2°53.173 338.6 12.8 328 10.3
2006-04-27 07:13:47 51°16.16 2°53.152 338.9 12.8 328 10.3
2006-04-27 07:13:52 51°16.176 2°53.138 339.6 12.8 329 10.3
2006-04-27 07:13:57 51°16.191 2°53.124 340.9 12.8 330 10.3
2006-04-27 07:14:00 51°16.2 2°53.116 342 12.8 331 10.4
2006-04-27 07:14:07 51°16.222 2°53.096 342.2 12.8 331 10.3
2006-04-27 07:14:12 51°16.237 2°53.083 341.8 12.8 330 10.4
2006-04-27 07:14:17 51°16.253 2°53.069 342.1 12.7 331 10.4
2006-04-27 07:14:21 51°16.265 2°53.058 342.4 12.8 330 10.3
2006-04-27 07:14:27 51°16.284 2°53.04 341.8 12.8 330 10.5
2006-04-27 07:14:32 51°16.299 2°53.025 340.8 12.8 328 10.4
2006-04-27 07:14:37 51°16.314 2°53.01 339.5 12.9 328 10.5
2006-04-27 07:14:41 51°16.326 2°52.998 338.9 12.9 328 10.4
2006-04-27 07:14:47 51°16.344 2°52.98 338.9 12.9 328 10.4
2006-04-27 07:14:52 51°16.36 2°52.966 339.5 12.9 329 10.5
2006-04-27 07:14:57 51°16.375 2°52.952 340.1 12.9 329 10.4
2006-04-27 07:15:02 51°16.391 2°52.938 340.1 12.9 329 10.5
2006-04-27 07:15:07 51°16.407 2°52.926 340.8 12.8 333 10.5
2006-04-27 07:15:12 51°16.422 2°52.914 342.5 12.7 335 10.5
2006-04-27 07:15:17 51°16.439 2°52.902 343.4 12.6 335 10.4
2006-04-27 07:15:21 51°16.451 2°52.893 343.4 12.6 335 10.4
2006-04-27 07:15:27 51°16.47 2°52.878 343 12.6 334 10.3
2006-04-27 07:15:32 51°16.485 2°52.866 342.8 12.6 334 10.3
2006-04-27 07:15:37 51°16.501 2°52.853 342.5 12.5 333 10.3
2006-04-27 07:15:41 51°16.513 2°52.843 342 12.5 333 10.2
2006-04-27 07:15:47 51°16.532 2°52.828 342.1 12.5 334 10.2
2006-04-27 07:15:52 51°16.548 2°52.815 341.2 12.6 332 10.2
2006-04-27 07:15:57 51°16.563 2°52.803 341.1 12.6 333 10.3
2006-04-27 07:16:01 51°16.576 2°52.793 341.5 12.5 333 10.1
2006-04-27 07:16:07 51°16.595 2°52.779 342.4 12.5 335 10.1
2006-04-27 07:16:11 51°16.607 2°52.77 342.9 12.5 335 10
2006-04-27 07:16:17 51°16.625 2°52.754 342.4 12.4 333 9.9
2006-04-27 07:16:21 51°16.637 2°52.744 341.4 12.4 332 9.8
2006-04-27 07:16:27 51°16.655 2°52.728 340.3 12.4 331 9.7
2006-04-27 07:16:31 51°16.667 2°52.716 339.5 12.4 330 9.5
2006-04-27 07:16:36 51°16.682 2°52.703 338.9 12.4 330 9.4
2006-04-27 07:16:40 51°16.694 2°52.691 337.9 12.4 328 9.4
2006-04-27 07:16:47 51°16.714 2°52.672 337.3 12.4 329 9.1
2006-04-27 07:16:51 51°16.726 2°52.66 337.4 12.3 328 8.8
2006-04-27 07:16:57 51°16.743 2°52.642 336.5 12.3 327 8.5
2006-04-27 07:17:02 51°16.757 2°52.628 336.1 12.1 328 8.2
2006-04-27 07:17:07 51°16.771 2°52.614 337 12 330 8.4
2006-04-27 07:17:11 51°16.783 2°52.604 337.5 12 329 8.4
2006-04-27 07:17:17 51°16.8 2°52.589 338.4 12 332 8.5
2006-04-27 07:17:21 51°16.812 2°52.579 340.6 12.1 333 8.4
2006-04-27 07:17:27 51°16.831 2°52.565 341.9 12.1 334 8.3
2006-04-27 07:17:32 51°16.846 2°52.554 343 12 335 8.4
2006-04-27 07:17:36 51°16.858 2°52.546 343.8 12 336 8.3
2006-04-27 07:17:40 51°16.87 2°52.537 344.8 12 337 8.5
2006-04-27 07:17:47 51°16.892 2°52.524 346.1 12 338 8.5
2006-04-27 07:17:52 51°16.908 2°52.514 347 12 339 8.6
2006-04-27 07:17:57 51°16.923 2°52.506 348.2 12.1 341 8.5
2006-04-27 07:18:00 51°16.933 2°52.5 349 12.1 340 8.4
2006-04-27 07:18:07 51°16.955 2°52.488 349.6 12 341 8.1
2006-04-27 07:18:12 51°16.971 2°52.479 349.8 12 340 8.2
2006-04-27 07:18:17 51°16.986 2°52.471 349.8 11.9 342 8.1
2006-04-27 07:18:20 51°16.995 2°52.467 350.5 11.9 343 8.1
2006-04-27 07:18:27 51°17.018 2°52.457 352 11.9 345 8.1
2006-04-27 07:18:32 51°17.034 2°52.451 353.2 11.9 345 8.3
2006-04-27 07:18:37 51°17.05 2°52.444 354.2 11.9 347 8.4
2006-04-27 07:18:42 51°17.066 2°52.439 354.9 11.9 347 8.5
2006-04-27 07:18:47 51°17.082 2°52.433 355.8 12 348 8.4
2006-04-27 07:18:52 51°17.098 2°52.428 356.4 12 348 8.4
2006-04-27 07:18:57 51°17.115 2°52.423 357 11.9 349 8.5
2006-04-27 07:19:01 51°17.127 2°52.418 357.2 11.9 348 8.5
2006-04-27 07:19:07 51°17.147 2°52.411 356.5 11.9 347 8.7
2006-04-27 07:19:12 51°17.163 2°52.403 355.4 11.9 347 8.4
2006-04-27 07:19:17 51°17.178 2°52.395 353.5 12 343 8.5
2006-04-27 07:19:22 51°17.194 2°52.385 351.2 12.1 339 8.7
2006-04-27 07:19:27 51°17.21 2°52.375 349.1 12.1 338 8.8
2006-04-27 07:19:31 51°17.222 2°52.366 347.7 12.2 337 8.8
2006-04-27 07:19:37 51°17.241 2°52.353 346.8 12.2 336 8.7
2006-04-27 07:19:41 51°17.253 2°52.345 346.3 12.2 336 8.9
2006-04-27 07:19:47 51°17.271 2°52.332 346 12.1 336 8.9
2006-04-27 07:19:52 51°17.286 2°52.321 346 12.2 337 9
2006-04-27 07:19:56 51°17.299 2°52.314 346.9 12.2 339 9
2006-04-27 07:20:00 51°17.312 2°52.306 348.4 12.1 340 9
2006-04-27 07:20:07 51°17.334 2°52.294 349.7 12.1 340 9
2006-04-27 07:20:12 51°17.35 2°52.285 350.7 12.1 342 9
2006-04-27 07:20:17 51°17.365 2°52.276 351.2 12.1 341 9
2006-04-27 07:20:21 51°17.378 2°52.269 350.9 12.1 340 9.1
2006-04-27 07:20:27 51°17.397 2°52.257 349.9 12.1 338 9.1
2006-04-27 07:20:32 51°17.412 2°52.245 347.9 12.1 335 9.1
2006-04-27 07:20:36 51°17.424 2°52.235 345.9 12.1 333 9.1
2006-04-27 07:20:41 51°17.439 2°52.222 343.9 12.2 332 9.1
2006-04-27 07:20:47 51°17.456 2°52.206 342.6 12.2 331 9
2006-04-27 07:20:51 51°17.468 2°52.194 341.1 12.3 328 9
2006-04-27 07:20:57 51°17.485 2°52.176 338.7 12.3 327 8.9
2006-04-27 07:21:02 51°17.499 2°52.16 337.5 12.3 325 9
2006-04-27 07:21:07 51°17.513 2°52.145 336.3 12.3 325 9.1
2006-04-27 07:21:09 51°17.518 2°52.138 335.9 12.4 324 9.1
2006-04-27 07:21:17 51°17.54 2°52.111 334.5 12.4 323 9.1
2006-04-27 07:21:22 51°17.553 2°52.093 333.2 12.4 321 9.1
2006-04-27 07:21:27 51°17.567 2°52.075 332.2 12.5 320 9.1
2006-04-27 07:21:32 51°17.58 2°52.057 331.5 12.5 319 9
2006-04-27 07:21:37 51°17.592 2°52.038 330.2 12.5 318 9.1
2006-04-27 07:21:41 51°17.602 2°52.022 329.1 12.6 316 9
2006-04-27 07:21:47 51°17.617 2°51.998 327.8 12.6 314 9
2006-04-27 07:21:52 51°17.629 2°51.978 326 12.6 313 9
2006-04-27 07:21:57 51°17.641 2°51.957 325 12.7 312 9
2006-04-27 07:22:01 51°17.65 2°51.94 324 12.7 312 9
2006-04-27 07:22:07 51°17.664 2°51.914 323.2 12.7 312 9
2006-04-27 07:22:12 51°17.675 2°51.893 322.9 12.7 311 9
2006-04-27 07:22:17 51°17.687 2°51.871 322.5 12.8 310 8.9
2006-04-27 07:22:21 51°17.696 2°51.854 322 12.8 309 8.9
2006-04-27 07:22:27 51°17.708 2°51.826 321 12.8 307 8.8
2006-04-27 07:22:32 51°17.718 2°51.802 318.6 12.9 304 8.8
2006-04-27 07:22:37 51°17.727 2°51.778 315.8 12.9 301 8.7
2006-04-27 07:22:41 51°17.734 2°51.757 313.3 13 298 8.7
2006-04-27 07:22:47 51°17.743 2°51.726 310 13.1 296 8.7
2006-04-27 07:22:52 51°17.751 2°51.699 307.1 13.2 294 8.7
2006-04-27 07:22:57 51°17.758 2°51.672 305.2 13.2 292 8.7
2006-04-27 07:23:01 51°17.763 2°51.65 303.5 13.3 291 8.6
2006-04-27 07:23:07 51°17.771 2°51.617 302.3 13.3 290 8.6
2006-04-27 07:23:12 51°17.777 2°51.589 301.6 13.4 290 8.7
2006-04-27 07:23:17 51°17.783 2°51.561 301 13.4 290 8.7
2006-04-27 07:23:22 51°17.789 2°51.533 300.7 13.4 289 8.7
2006-04-27 07:23:27 51°17.795 2°51.505 300.4 13.5 289 8.7
2006-04-27 07:23:32 51°17.801 2°51.477 300.3 13.5 289 8.8
2006-04-27 07:23:37 51°17.808 2°51.449 300.4 13.4 290 8.8
2006-04-27 07:23:41 51°17.813 2°51.427 301.6 13.5 291 8.8
2006-04-27 07:23:47 51°17.822 2°51.394 303.1 13.4 292 8.9
2006-04-27 07:23:52 51°17.83 2°51.368 304.1 13.4 294 9
2006-04-27 07:23:56 51°17.836 2°51.346 306 13.4 295 9
2006-04-27 07:24:01 51°17.844 2°51.319 306.9 13.4 296 9.1
2006-04-27 07:24:07 51°17.854 2°51.287 307.1 13.4 296 9.1
2006-04-27 07:24:12 51°17.862 2°51.26 307.3 13.5 296 9.3
2006-04-27 07:24:17 51°17.871 2°51.233 307.3 13.5 296 9.4
2006-04-27 07:24:21 51°17.877 2°51.211 307.6 13.5 296 9.5
2006-04-27 07:24:27 51°17.887 2°51.179 307.6 13.6 296 9.6
2006-04-27 07:24:32 51°17.895 2°51.152 307.6 13.6 295 9.6
2006-04-27 07:24:37 51°17.903 2°51.124 307.2 13.7 295 9.8
2006-04-27 07:24:41 51°17.909 2°51.102 307 13.7 295 9.9
2006-04-27 07:24:47 51°17.919 2°51.069 306.4 13.7 294 10
2006-04-27 07:24:52 51°17.926 2°51.041 305.9 13.8 294 10.2
2006-04-27 07:24:57 51°17.933 2°51.013 305.4 13.8 293 10.3
2006-04-27 07:25:00 51°17.938 2°50.996 304.8 13.8 293 10.4
2006-04-27 07:25:07 51°17.949 2°50.957 304.1 13.8 293 10.6
2006-04-27 07:25:12 51°17.956 2°50.929 304.1 13.7 294 10.7
2006-04-27 07:25:17 51°17.963 2°50.901 304.1 13.7 292 10.8
2006-04-27 07:25:22 51°17.971 2°50.872 303.4 13.8 292 10.9
2006-04-27 07:25:27 51°17.978 2°50.844 303.3 13.8 293 10.9
2006-04-27 07:25:32 51°17.986 2°50.817 304 13.8 293 11.1
2006-04-27 07:25:36 51°17.992 2°50.794 304.5 13.8 294 11.1
2006-04-27 07:25:40 51°17.998 2°50.772 304.7 13.8 293 11.2
2006-04-27 07:25:47 51°18.009 2°50.732 304.7 13.9 293 11.3
2006-04-27 07:25:52 51°18.017 2°50.705 304.7 13.8 294 11.4
2006-04-27 07:25:57 51°18.024 2°50.677 305.2 13.8 294 11.4
2006-04-27 07:26:01 51°18.03 2°50.655 305.4 13.7 294 11.5
2006-04-27 07:26:07 51°18.039 2°50.621 305.4 13.8 294 11.6
2006-04-27 07:26:12 51°18.047 2°50.593 305.4 13.8 294 11.6
2006-04-27 07:26:16 51°18.054 2°50.571 305.5 13.8 294 11.7
2006-04-27 07:26:20 51°18.06 2°50.548 305.6 13.8 294 11.7
2006-04-27 07:26:27 51°18.071 2°50.51 305.9 13.8 295 11.8
2006-04-27 07:26:32 51°18.079 2°50.482 306.2 13.8 294 11.8
2006-04-27 07:26:36 51°18.085 2°50.46 306.2 13.7 294 11.9
2006-04-27 07:26:40 51°18.091 2°50.438 306.2 13.7 294 12
2006-04-27 07:26:47 51°18.102 2°50.399 305.8 13.8 294 12.2
2006-04-27 07:26:52 51°18.11 2°50.371 305.4 13.8 294 12.2
2006-04-27 07:26:57 51°18.117 2°50.342 304.9 13.8 293 12.3
2006-04-27 07:27:01 51°18.123 2°50.32 304.6 13.8 293 12.4
2006-04-27 07:27:07 51°18.132 2°50.286 304.6 13.8 293 12.5
2006-04-27 07:27:12 51°18.139 2°50.258 304.6 13.8 292 12.5
2006-04-27 07:27:17 51°18.147 2°50.23 304.3 13.8 292 12.7
2006-04-27 07:27:21 51°18.152 2°50.207 304.2 13.8 293 12.6
2006-04-27 07:27:27 51°18.161 2°50.174 304.4 13.8 293 12.7
2006-04-27 07:27:32 51°18.169 2°50.145 304.8 13.8 293 12.7
2006-04-27 07:27:37 51°18.176 2°50.117 305.1 13.8 293 12.8
2006-04-27 07:27:41 51°18.182 2°50.095 305.3 13.9 293 12.7
2006-04-27 07:27:47 51°18.192 2°50.061 305.8 13.9 294 12.9
2006-04-27 07:27:52 51°18.199 2°50.033 305.9 13.8 293 12.8
2006-04-27 07:27:57 51°18.207 2°50.004 305.6 13.9 293 12.8
2006-04-27 07:28:02 51°18.214 2°49.976 305.4 13.9 292 12.7
2006-04-27 07:28:07 51°18.221 2°49.948 305.2 13.9 293 12.7
2006-04-27 07:28:08 51°18.222 2°49.942 305.2 13.9 292 12.7
2006-04-27 07:28:17 51°18.236 2°49.891 305.2 13.9 292 12.7
2006-04-27 07:28:22 51°18.243 2°49.862 305.2 13.9 292 12.6
2006-04-27 07:28:27 51°18.25 2°49.833 305.2 14 292 12.7
2006-04-27 07:28:32 51°18.257 2°49.805 304.9 14 292 12.5
2006-04-27 07:28:37 51°18.264 2°49.776 304.8 14 292 12.5
2006-04-27 07:28:41 51°18.27 2°49.753 304.8 14 292 12.4
2006-04-27 07:28:45 51°18.276 2°49.73 304.7 14 292 12.3
2006-04-27 07:28:51 51°18.285 2°49.695 305 14 292 12.2
2006-04-27 07:28:57 51°18.294 2°49.661 305.3 14 293 12
2006-04-27 07:29:02 51°18.302 2°49.632 305.8 14 293 11.9
2006-04-27 07:29:07 51°18.309 2°49.604 306 14 293 11.8
2006-04-27 07:29:12 51°18.317 2°49.576 306.2 14 293 11.7
2006-04-27 07:29:17 51°18.324 2°49.547 306 14 293 11.5
2006-04-27 07:29:21 51°18.33 2°49.524 305.9 13.9 293 11.4
2006-04-27 07:29:27 51°18.339 2°49.49 305.5 13.9 293 10.8
2006-04-27 07:29:32 51°18.347 2°49.462 305.4 13.8 293 10.7
2006-04-27 07:29:37 51°18.354 2°49.434 305.3 13.8 293 10.4
2006-04-27 07:29:41 51°18.36 2°49.412 305.5 13.8 293 9.9
2006-04-27 07:29:47 51°18.369 2°49.378 305.5 13.7 293 10.4
2006-04-27 07:29:52 51°18.377 2°49.35 305.5 13.7 294 10.2
2006-04-27 07:29:57 51°18.385 2°49.323 305.5 13.8 294 10.2
2006-04-27 07:30:01 51°18.391 2°49.3 305.8 13.8 294 10
2006-04-27 07:30:07 51°18.401 2°49.267 305.7 13.8 294 9.8
2006-04-27 07:30:11 51°18.407 2°49.245 305.7 13.7 295 9.6
2006-04-27 07:30:16 51°18.415 2°49.218 306.2 13.6 295 9.4
2006-04-27 07:30:20 51°18.421 2°49.196 306.2 13.6 295 9.1
2006-04-27 07:30:26 51°18.431 2°49.163 307 13.5 296 9.2
2006-04-27 07:30:31 51°18.439 2°49.137 307 13.5 296 9.1
2006-04-27 07:30:37 51°18.449 2°49.104 307 13.5 295 9.1
2006-04-27 07:30:42 51°18.457 2°49.076 306.9 13.6 296 9.4
2006-04-27 07:30:47 51°18.465 2°49.049 306.2 13.7 295 9.4
2006-04-27 07:30:52 51°18.473 2°49.022 305.9 13.7 295 9.5
2006-04-27 07:30:57 51°18.481 2°48.994 305.5 13.8 295 9.5
2006-04-27 07:31:01 51°18.488 2°48.972 305.5 13.8 295 9.5
2006-04-27 07:31:07 51°18.497 2°48.938 305.1 13.8 295 9.4
2006-04-27 07:31:12 51°18.505 2°48.911 305.1 13.7 295 9.4
2006-04-27 07:31:17 51°18.513 2°48.883 305.3 13.7 295 9
2006-04-27 07:31:22 51°18.521 2°48.855 305.5 13.7 295 8.3
2006-04-27 07:31:27 51°18.53 2°48.829 305.5 13.5 295 9.3
2006-04-27 07:31:31 51°18.536 2°48.807 306 13.6 296 9.6
2006-04-27 07:31:37 51°18.547 2°48.774 306.7 13.7 297 9.7
2006-04-27 07:31:41 51°18.553 2°48.752 307.1 13.8 297 9.9
2006-04-27 07:31:47 51°18.564 2°48.72 307.5 13.8 297 9.8
2006-04-27 07:31:52 51°18.572 2°48.692 307.3 13.8 296 9.8
2006-04-27 07:31:57 51°18.58 2°48.664 306.7 13.8 295 9.5
2006-04-27 07:32:02 51°18.588 2°48.636 305.9 13.8 295 9.6
2006-04-27 07:32:07 51°18.596 2°48.609 304.6 13.7 294 9.9
2006-04-27 07:32:12 51°18.603 2°48.581 303.8 13.7 293 9.9
2006-04-27 07:32:17 51°18.61 2°48.552 302.7 13.8 292 10.7
2006-04-27 07:32:21 51°18.616 2°48.529 302.1 13.9 292 10.8
2006-04-27 07:32:27 51°18.625 2°48.495 301.6 13.9 292 11.2
2006-04-27 07:32:32 51°18.632 2°48.466 301.1 13.9 291 11.3
2006-04-27 07:32:37 51°18.639 2°48.437 300.9 14 292 11.5
2006-04-27 07:32:41 51°18.645 2°48.415 301.2 14 293 11.3
2006-04-27 07:32:47 51°18.654 2°48.38 302.4 13.9 294 11.4
2006-04-27 07:32:52 51°18.662 2°48.353 303.4 13.9 294 11.7
2006-04-27 07:32:57 51°18.67 2°48.324 304.2 13.9 294 11.7
2006-04-27 07:33:00 51°18.675 2°48.308 304.5 14 295 12.3
2006-04-27 07:33:07 51°18.686 2°48.268 304.9 13.9 294 12.5
2006-04-27 07:33:12 51°18.694 2°48.24 304.9 14 294 12.6
2006-04-27 07:33:17 51°18.702 2°48.212 304.9 14 294 12.7
2006-04-27 07:33:21 51°18.709 2°48.189 304.9 14 294 12.8
2006-04-27 07:33:27 51°18.718 2°48.155 304.9 14 294 12.9
2006-04-27 07:33:32 51°18.726 2°48.127 304.6 14 293 13.1
2006-04-27 07:33:37 51°18.733 2°48.098 304.6 14 293 13.2
2006-04-27 07:33:41 51°18.74 2°48.075 304.5 14.1 293 13.4
2006-04-27 07:33:47 51°18.749 2°48.04 304.1 14.1 293 13.5
2006-04-27 07:33:52 51°18.756 2°48.012 304 14.1 292 13.8
2006-04-27 07:33:56 51°18.762 2°47.988 303.9 14.2 293 14
2006-04-27 07:34:01 51°18.77 2°47.96 304 14.1 293 14.1
2006-04-27 07:34:07 51°18.779 2°47.925 304.5 14.1 293 14.1
2006-04-27 07:34:12 51°18.787 2°47.897 304.8 14.1 294 14.3
2006-04-27 07:34:17 51°18.795 2°47.868 305.2 14.1 294 14.3
2006-04-27 07:34:22 51°18.803 2°47.839 305.5 14.1 294 14.6
2006-04-27 07:34:27 51°18.811 2°47.811 305.5 14.2 294 14.8
2006-04-27 07:34:32 51°18.819 2°47.783 305.5 14.2 294 15
2006-04-27 07:34:37 51°18.826 2°47.754 305.3 14.2 293 15.2
2006-04-27 07:34:42 51°18.834 2°47.724 304.9 14.2 293 15.4
2006-04-27 07:34:47 51°18.842 2°47.696 304.9 14.2 293 16
2006-04-27 07:34:52 51°18.85 2°47.667 304.9 14.2 293 16.3
2006-04-27 07:34:57 51°18.857 2°47.638 305 14.2 293 16.7
2006-04-27 07:35:01 51°18.864 2°47.614 304.9 14.3 293 17.1
2006-04-27 07:35:07 51°18.873 2°47.58 304.8 14.3 293 17.4
2006-04-27 07:35:12 51°18.881 2°47.551 305 14.3 293 17.7
2006-04-27 07:35:17 51°18.889 2°47.522 305.3 14.2 294 17.6
2006-04-27 07:35:21 51°18.896 2°47.499 305.4 14.3 293 17.5
2006-04-27 07:35:27 51°18.905 2°47.464 304.9 14.3 293 17.3
2006-04-27 07:35:32 51°18.912 2°47.435 304.7 14.3 293 17.5
2006-04-27 07:35:37 51°18.92 2°47.406 304.6 14.4 293 17.7
2006-04-27 07:35:42 51°18.928 2°47.376 304.4 14.3 292 17.6
2006-04-27 07:35:47 51°18.935 2°47.347 304.4 14.3 293 17.8
2006-04-27 07:35:51 51°18.941 2°47.323 304.3 14.4 293 17.9
2006-04-27 07:35:57 51°18.951 2°47.288 304.4 14.4 293 18.1
2006-04-27 07:36:02 51°18.958 2°47.259 304.6 14.4 293 18.3
2006-04-27 07:36:07 51°18.966 2°47.23 304.7 14.4 293 18.5